Time;durP1;ratioP1;P1;durP2;ratioP2;P2;SDS_P1;SDS_P2;PMS_P1;PMS_P2;Temp;Humidity;BMP_temperature;BMP_pressure;BME280_temperature;BME280_humidity;BME280_pressure;Samples;Min_cycle;Max_cycle;Signal;HPM_P1;HPM_P2
2022/01/10 00:01:18;;;;;;;;;;;2.90;92.10;;;;;;4986273;28;19922;-87
2022/01/10 00:03:45;;;;;;;;;;;2.90;92.20;;;;;;4986959;28;19931;-87
2022/01/10 00:06:11;;;;;;;;;;;2.90;92.20;;;;;;4976133;28;19924;-87
2022/01/10 00:08:40;;;;;;;;;;;2.90;92.30;;;;;;4993845;28;20475;-87
2022/01/10 00:11:07;;;;;;;;;;;2.80;92.30;;;;;;4984676;28;19926;-87
2022/01/10 00:13:33;;;;;;;;;;;2.80;92.30;;;;;;4995201;28;20112;-87
2022/01/10 00:16:00;;;;;;;;;;;2.90;92.40;;;;;;5006149;28;19913;-87
2022/01/10 00:18:27;;;;;;;;;;;2.80;92.30;;;;;;4977890;28;19914;-88
2022/01/10 00:20:54;;;;;;;;;;;2.80;92.30;;;;;;4978656;28;20385;-87
2022/01/10 00:23:21;;;;;;;;;;;2.80;92.30;;;;;;4986452;28;19928;-87
2022/01/10 00:25:48;;;;;;;;;;;2.80;92.30;;;;;;4988697;28;19924;-88
2022/01/10 00:28:14;;;;;;;;;;;2.70;92.20;;;;;;4987996;28;19922;-87
2022/01/10 00:30:41;;;;;;;;;;;2.70;92.20;;;;;;5003758;28;20317;-87
2022/01/10 00:33:08;;;;;;;;;;;2.70;92.30;;;;;;4985440;28;19924;-87
2022/01/10 00:35:35;;;;;;;;;;;2.70;92.30;;;;;;4991041;28;19929;-87
2022/01/10 00:38:02;;;;;;;;;;;2.70;92.30;;;;;;4992275;28;19927;-87
2022/01/10 00:40:29;;;;;;;;;;;2.60;92.30;;;;;;4996005;28;20106;-87
2022/01/10 00:42:56;;;;;;;;;;;2.70;92.30;;;;;;4987082;28;19917;-87
2022/01/10 00:45:26;;;;;;;;;;;2.60;92.30;;;;;;4980924;28;20018;-87
2022/01/10 00:47:54;;;;;;;;;;;2.60;92.30;;;;;;4999806;28;20378;-87
2022/01/10 00:50:21;;;;;;;;;;;2.60;92.30;;;;;;4968517;28;19926;-87
2022/01/10 00:52:48;;;;;;;;;;;2.60;92.30;;;;;;4983761;28;19920;-87
2022/01/10 00:55:15;;;;;;;;;;;2.60;92.30;;;;;;4999866;28;19940;-87
2022/01/10 00:57:42;;;;;;;;;;;2.60;92.30;;;;;;4990017;28;19920;-87
2022/01/10 01:00:10;;;;;;;;;;;2.60;92.30;;;;;;4985760;28;19995;-87
2022/01/10 01:02:37;;;;;;;;;;;2.50;92.30;;;;;;4955247;28;19925;-87
2022/01/10 01:05:07;;;;;;;;;;;2.50;92.30;;;;;;4980954;28;20000;-87
2022/01/10 01:07:34;;;;;;;;;;;2.50;92.30;;;;;;4964547;28;19921;-87
2022/01/10 01:10:30;;;;;;;;;;;2.50;92.30;;;;;;4985381;28;20107;-87
2022/01/10 01:13:06;;;;;;;;;;;2.50;92.30;;;;;;4981825;28;20114;-88
2022/01/10 01:15:44;;;;;;;;;;;2.50;92.30;;;;;;5007963;28;19913;-87
2022/01/10 01:18:19;;;;;;;;;;;2.40;92.30;;;;;;5005370;28;19924;-87
2022/01/10 01:24:01;;;;;;;;;;;2.40;92.30;;;;;;4987670;28;19914;-87
2022/01/10 01:26:19;;;;;;;;;;;2.40;92.30;;;;;;4997048;28;20008;-87
2022/01/10 01:28:46;;;;;;;;;;;2.40;92.30;;;;;;4986700;28;19923;-87
2022/01/10 01:31:13;;;;;;;;;;;2.40;92.30;;;;;;4987771;28;19918;-87
2022/01/10 01:33:40;;;;;;;;;;;2.30;92.30;;;;;;5012945;28;20409;-87
2022/01/10 01:36:07;;;;;;;;;;;2.30;92.30;;;;;;4992327;28;19922;-87
2022/01/10 01:38:34;;;;;;;;;;;2.30;92.30;;;;;;4985982;28;19913;-87
2022/01/10 01:43:46;;;;;;;;;;;2.30;92.30;;;;;;4996131;28;19948;-87
2022/01/10 01:46:14;;;;;;;;;;;2.30;92.30;;;;;;4997560;28;19913;-87
2022/01/10 01:48:41;;;;;;;;;;;2.30;92.30;;;;;;4979868;28;20303;-87
2022/01/10 01:51:08;;;;;;;;;;;2.30;92.30;;;;;;4993295;28;20275;-88
2022/01/10 01:53:36;;;;;;;;;;;2.20;92.30;;;;;;4979078;28;19917;-88
2022/01/10 01:56:04;;;;;;;;;;;2.20;92.30;;;;;;4987169;28;20422;-87
2022/01/10 01:58:32;;;;;;;;;;;2.20;92.30;;;;;;5009607;28;19913;-87
2022/01/10 02:00:59;;;;;;;;;;;2.20;92.30;;;;;;4990917;28;19913;-87
2022/01/10 02:03:26;;;;;;;;;;;2.20;92.30;;;;;;4989742;28;19914;-87
2022/01/10 02:05:53;;;;;;;;;;;2.20;92.30;;;;;;4978399;28;19940;-87
2022/01/10 02:08:20;;;;;;;;;;;2.20;92.30;;;;;;4997421;28;19920;-87
2022/01/10 02:10:46;;;;;;;;;;;2.10;92.30;;;;;;4982137;28;20533;-87
2022/01/10 02:13:13;;;;;;;;;;;2.20;92.30;;;;;;4987844;28;19913;-87
2022/01/10 02:15:49;;;;;;;;;;;2.10;92.30;;;;;;4992303;28;19940;-87
2022/01/10 02:18:17;;;;;;;;;;;2.10;92.30;;;;;;4998200;28;19920;-87
2022/01/10 02:20:45;;;;;;;;;;;2.10;92.30;;;;;;4992200;28;19923;-87
2022/01/10 02:23:12;;;;;;;;;;;2.10;92.20;;;;;;4993519;28;19909;-87
2022/01/10 02:25:39;;;;;;;;;;;2.10;92.20;;;;;;4978057;28;20267;-87
2022/01/10 02:28:06;;;;;;;;;;;2.10;92.20;;;;;;4994021;28;20539;-87
2022/01/10 02:30:33;;;;;;;;;;;2.10;92.20;;;;;;4991048;28;19913;-87
2022/01/10 02:33:01;;;;;;;;;;;2.00;92.20;;;;;;4982839;28;20107;-87
2022/01/10 02:35:32;;;;;;;;;;;2.00;92.20;;;;;;4990111;28;19944;-87
2022/01/10 02:37:59;;;;;;;;;;;2.00;92.20;;;;;;4983747;28;19924;-87
2022/01/10 02:40:28;;;;;;;;;;;2.00;92.20;;;;;;4975259;28;19913;-87
2022/01/10 02:42:55;;;;;;;;;;;2.00;92.20;;;;;;4986708;28;19914;-87
2022/01/10 02:45:22;;;;;;;;;;;1.90;92.20;;;;;;5007794;28;19914;-87
2022/01/10 02:47:49;;;;;;;;;;;1.90;92.20;;;;;;4983548;28;19918;-87
2022/01/10 02:50:17;;;;;;;;;;;1.90;92.20;;;;;;4991666;28;20288;-87
2022/01/10 02:52:44;;;;;;;;;;;1.90;92.30;;;;;;4976089;28;19988;-87
2022/01/10 02:55:12;;;;;;;;;;;2.00;92.30;;;;;;5001977;28;20406;-88
2022/01/10 02:57:39;;;;;;;;;;;1.90;92.30;;;;;;4988613;28;19914;-88
2022/01/10 03:00:08;;;;;;;;;;;1.90;92.30;;;;;;4986433;28;20121;-87
2022/01/10 03:02:36;;;;;;;;;;;1.90;92.30;;;;;;4992031;28;19920;-87
2022/01/10 03:05:04;;;;;;;;;;;1.90;92.30;;;;;;5002671;28;20548;-87
2022/01/10 03:07:31;;;;;;;;;;;1.90;92.30;;;;;;5004496;28;19952;-87
2022/01/10 03:09:58;;;;;;;;;;;1.90;92.30;;;;;;4986383;28;20007;-87
2022/01/10 03:12:25;;;;;;;;;;;1.90;92.30;;;;;;4995201;28;19917;-87
2022/01/10 03:14:52;;;;;;;;;;;1.90;92.30;;;;;;4982559;28;20014;-87
2022/01/10 03:17:19;;;;;;;;;;;1.80;92.20;;;;;;5002253;28;20266;-87
2022/01/10 03:19:46;;;;;;;;;;;1.80;92.20;;;;;;4978225;28;19914;-87
2022/01/10 03:22:13;;;;;;;;;;;1.90;92.20;;;;;;4995083;28;19920;-87
2022/01/10 03:24:40;;;;;;;;;;;1.80;92.20;;;;;;4986256;28;19922;-87
2022/01/10 03:27:06;;;;;;;;;;;1.80;92.20;;;;;;4981876;28;19921;-88
2022/01/10 03:29:33;;;;;;;;;;;1.80;92.20;;;;;;4999316;28;19917;-87
2022/01/10 03:32:01;;;;;;;;;;;1.80;92.20;;;;;;4992002;28;20224;-87
2022/01/10 03:34:28;;;;;;;;;;;1.80;92.20;;;;;;4989987;28;19918;-87
2022/01/10 03:36:55;;;;;;;;;;;1.80;92.20;;;;;;4995816;28;20309;-87
2022/01/10 03:39:22;;;;;;;;;;;1.80;92.20;;;;;;4982839;28;19920;-87
2022/01/10 03:41:49;;;;;;;;;;;1.80;92.20;;;;;;4994637;28;20333;-88
2022/01/10 03:44:16;;;;;;;;;;;1.80;92.30;;;;;;4973835;28;19913;-88
2022/01/10 03:46:43;;;;;;;;;;;1.80;92.30;;;;;;4997272;28;20160;-88
2022/01/10 03:49:10;;;;;;;;;;;1.70;92.30;;;;;;4992721;28;19920;-88
2022/01/10 03:51:36;;;;;;;;;;;1.80;92.30;;;;;;5008949;28;19917;-87
2022/01/10 03:54:03;;;;;;;;;;;1.80;92.40;;;;;;4988232;28;20002;-87
2022/01/10 03:56:31;;;;;;;;;;;1.80;92.40;;;;;;4988585;28;19918;-88
2022/01/10 03:58:57;;;;;;;;;;;1.70;92.40;;;;;;4985105;28;20105;-87
2022/01/10 04:01:24;;;;;;;;;;;1.80;92.40;;;;;;4990996;28;19914;-88
2022/01/10 04:03:52;;;;;;;;;;;1.80;92.40;;;;;;4986295;28;19944;-88
2022/01/10 04:06:19;;;;;;;;;;;1.80;92.40;;;;;;4986384;28;19917;-88
2022/01/10 04:08:46;;;;;;;;;;;1.80;92.40;;;;;;4988044;28;20438;-88
2022/01/10 04:11:13;;;;;;;;;;;1.80;92.30;;;;;;4980508;28;19939;-88
2022/01/10 04:13:40;;;;;;;;;;;1.80;92.30;;;;;;4982924;28;19925;-88
2022/01/10 04:16:07;;;;;;;;;;;1.80;92.30;;;;;;4988672;28;20116;-88
2022/01/10 04:18:34;;;;;;;;;;;1.80;92.40;;;;;;5004792;28;19928;-88
2022/01/10 04:21:01;;;;;;;;;;;1.80;92.40;;;;;;5003308;28;19922;-88
2022/01/10 04:23:28;;;;;;;;;;;1.80;92.40;;;;;;4992077;28;19913;-88
2022/01/10 04:25:54;;;;;;;;;;;1.70;92.40;;;;;;5004639;28;20048;-88
2022/01/10 04:28:21;;;;;;;;;;;1.80;92.50;;;;;;5011623;28;19919;-89
2022/01/10 04:30:48;;;;;;;;;;;1.80;92.40;;;;;;4984571;28;19917;-88
2022/01/10 04:33:18;;;;;;;;;;;1.80;92.50;;;;;;4987819;28;19918;-88
2022/01/10 04:35:46;;;;;;;;;;;1.80;92.50;;;;;;4991102;28;19922;-88
2022/01/10 04:38:13;;;;;;;;;;;1.90;92.60;;;;;;4987132;28;19920;-89
2022/01/10 04:40:39;;;;;;;;;;;1.90;92.70;;;;;;4969570;28;19920;-88
2022/01/10 04:43:06;;;;;;;;;;;2.00;92.80;;;;;;4993715;28;20019;-88
2022/01/10 04:45:33;;;;;;;;;;;2.00;92.90;;;;;;4983977;28;19914;-88
2022/01/10 04:48:00;;;;;;;;;;;2.00;92.90;;;;;;5006951;28;20126;-88
2022/01/10 04:53:03;;;;;;;;;;;2.10;93.10;;;;;;4986062;28;20341;-88
2022/01/10 04:55:30;;;;;;;;;;;2.20;93.10;;;;;;4987563;28;20321;-88
2022/01/10 04:57:56;;;;;;;;;;;2.30;93.20;;;;;;5014289;28;20053;-88
2022/01/10 05:00:25;;;;;;;;;;;2.30;93.20;;;;;;4985519;28;19921;-88
2022/01/10 05:02:52;;;;;;;;;;;2.40;93.20;;;;;;4978604;28;19914;-88
2022/01/10 05:05:19;;;;;;;;;;;2.40;93.30;;;;;;4991223;28;20393;-88
2022/01/10 05:07:46;;;;;;;;;;;2.50;93.30;;;;;;4990718;28;19913;-88
2022/01/10 05:10:13;;;;;;;;;;;2.50;93.30;;;;;;4990423;28;19914;-88
2022/01/10 05:12:40;;;;;;;;;;;2.60;93.40;;;;;;5000588;28;19917;-88
2022/01/10 05:15:07;;;;;;;;;;;2.60;93.40;;;;;;4999753;28;19922;-88
2022/01/10 05:17:34;;;;;;;;;;;2.70;93.40;;;;;;4972610;28;19913;-88
2022/01/10 05:20:01;;;;;;;;;;;2.70;93.40;;;;;;4984526;28;20024;-88
2022/01/10 05:22:28;;;;;;;;;;;2.70;93.40;;;;;;5017214;28;19913;-89
2022/01/10 05:24:55;;;;;;;;;;;2.80;93.50;;;;;;4987148;28;20117;-88
2022/01/10 05:27:22;;;;;;;;;;;2.80;93.50;;;;;;4994940;28;20337;-89
2022/01/10 05:29:49;;;;;;;;;;;2.90;93.60;;;;;;4986379;28;19928;-88
2022/01/10 05:32:16;;;;;;;;;;;2.90;93.60;;;;;;4986374;28;19918;-88
2022/01/10 05:34:43;;;;;;;;;;;2.90;93.60;;;;;;4982256;28;19930;-88
2022/01/10 05:37:09;;;;;;;;;;;2.90;93.60;;;;;;4996369;28;19923;-88
2022/01/10 05:39:36;;;;;;;;;;;3.00;93.60;;;;;;4982779;28;20412;-88
2022/01/10 05:42:03;;;;;;;;;;;3.00;93.70;;;;;;4990141;28;19921;-88
2022/01/10 05:44:30;;;;;;;;;;;3.00;93.70;;;;;;5015428;28;19913;-88
2022/01/10 05:46:59;;;;;;;;;;;3.10;93.80;;;;;;4970575;28;19918;-88
2022/01/10 05:49:32;;;;;;;;;;;3.10;93.80;;;;;;4998069;28;19921;-88
2022/01/10 05:52:00;;;;;;;;;;;3.10;93.80;;;;;;4985334;28;20086;-88
2022/01/10 05:54:27;;;;;;;;;;;3.10;93.80;;;;;;4984104;28;20157;-88
2022/01/10 05:56:53;;;;;;;;;;;3.10;93.80;;;;;;4971327;28;19922;-88
2022/01/10 05:59:20;;;;;;;;;;;3.20;93.90;;;;;;4992460;28;19928;-88
2022/01/10 06:01:47;;;;;;;;;;;3.20;93.90;;;;;;4986502;28;19913;-88
2022/01/10 06:04:14;;;;;;;;;;;3.20;93.90;;;;;;4983343;28;19928;-88
2022/01/10 06:06:41;;;;;;;;;;;3.20;93.80;;;;;;4988494;28;19920;-88
2022/01/10 06:09:08;;;;;;;;;;;3.20;93.90;;;;;;4974197;28;20004;-88
2022/01/10 06:11:34;;;;;;;;;;;3.20;93.90;;;;;;4990335;28;19922;-88
2022/01/10 06:14:01;;;;;;;;;;;3.30;93.90;;;;;;5000828;28;19921;-88
2022/01/10 06:16:28;;;;;;;;;;;3.20;93.90;;;;;;4980979;28;19924;-88
2022/01/10 06:18:55;;;;;;;;;;;3.30;93.90;;;;;;5006209;28;19920;-88
2022/01/10 06:21:22;;;;;;;;;;;3.30;93.90;;;;;;4989566;28;20317;-88
2022/01/10 06:23:49;;;;;;;;;;;3.30;93.90;;;;;;5009877;28;19918;-88
2022/01/10 06:26:16;;;;;;;;;;;3.30;94.00;;;;;;4979475;28;20201;-88
2022/01/10 06:28:43;;;;;;;;;;;3.30;94.00;;;;;;4991259;28;19928;-88
2022/01/10 06:31:10;;;;;;;;;;;3.30;94.00;;;;;;4978188;28;20079;-88
2022/01/10 06:33:36;;;;;;;;;;;3.30;94.00;;;;;;4979397;28;19917;-88
2022/01/10 06:36:03;;;;;;;;;;;3.30;94.00;;;;;;4994985;28;20103;-88
2022/01/10 06:38:30;;;;;;;;;;;3.30;94.00;;;;;;4994371;28;20166;-88
2022/01/10 06:40:57;;;;;;;;;;;3.30;94.00;;;;;;4992611;28;19913;-89
2022/01/10 06:43:24;;;;;;;;;;;3.30;94.00;;;;;;4996237;28;19913;-88
2022/01/10 06:45:51;;;;;;;;;;;3.30;94.10;;;;;;4992941;28;19913;-88
2022/01/10 06:48:18;;;;;;;;;;;3.30;94.10;;;;;;4982952;28;20803;-88
2022/01/10 06:50:47;;;;;;;;;;;3.30;94.10;;;;;;4993934;28;19918;-88
2022/01/10 06:53:15;;;;;;;;;;;3.30;94.10;;;;;;4981443;28;19925;-88
2022/01/10 06:55:42;;;;;;;;;;;3.30;94.10;;;;;;5010125;28;20370;-88
2022/01/10 06:58:09;;;;;;;;;;;3.30;94.10;;;;;;4973564;28;20028;-88
2022/01/10 07:00:36;;;;;;;;;;;3.30;94.10;;;;;;4992001;28;19913;-88
2022/01/10 07:03:03;;;;;;;;;;;3.30;94.10;;;;;;4994256;28;20615;-88
2022/01/10 07:05:30;;;;;;;;;;;3.30;94.10;;;;;;4990433;28;19913;-88
2022/01/10 07:07:57;;;;;;;;;;;3.30;94.00;;;;;;5001904;28;19917;-88
2022/01/10 07:10:24;;;;;;;;;;;3.20;94.00;;;;;;4983939;28;20278;-88
2022/01/10 07:12:52;;;;;;;;;;;3.20;94.00;;;;;;4968261;28;19913;-88
2022/01/10 07:15:20;;;;;;;;;;;3.20;94.00;;;;;;4985665;28;20498;-89
2022/01/10 07:17:47;;;;;;;;;;;3.10;93.90;;;;;;4991142;28;19923;-88
2022/01/10 07:20:13;;;;;;;;;;;3.10;93.90;;;;;;4978407;28;19914;-88
2022/01/10 07:22:40;;;;;;;;;;;3.10;93.90;;;;;;4963929;28;20417;-88
2022/01/10 07:25:08;;;;;;;;;;;3.10;94.00;;;;;;4984418;28;19944;-88
2022/01/10 07:27:34;;;;;;;;;;;3.00;93.90;;;;;;4982441;28;19928;-88
2022/01/10 07:30:04;;;;;;;;;;;3.00;93.90;;;;;;4988376;28;19936;-88
2022/01/10 07:32:31;;;;;;;;;;;3.00;93.90;;;;;;4986695;28;19920;-88
2022/01/10 07:34:58;;;;;;;;;;;3.00;93.90;;;;;;4981033;28;19922;-89
2022/01/10 07:37:25;;;;;;;;;;;3.00;94.00;;;;;;5002944;28;20385;-88
2022/01/10 07:39:52;;;;;;;;;;;2.90;93.90;;;;;;4988282;28;19928;-89
2022/01/10 07:42:18;;;;;;;;;;;2.90;93.90;;;;;;4981832;28;20558;-88
2022/01/10 07:44:45;;;;;;;;;;;2.90;94.00;;;;;;4977609;28;19913;-88
2022/01/10 07:47:12;;;;;;;;;;;2.90;94.00;;;;;;4988989;28;20177;-88
2022/01/10 07:49:39;;;;;;;;;;;2.90;94.00;;;;;;4987134;28;19939;-88
2022/01/10 07:52:06;;;;;;;;;;;2.90;94.00;;;;;;4980975;28;20113;-88
2022/01/10 07:54:33;;;;;;;;;;;2.90;94.00;;;;;;4974795;28;20378;-88
2022/01/10 07:57:00;;;;;;;;;;;2.90;94.00;;;;;;4982483;28;20421;-88
2022/01/10 07:59:26;;;;;;;;;;;2.90;94.00;;;;;;4986287;28;19918;-88
2022/01/10 08:01:53;;;;;;;;;;;2.90;94.10;;;;;;4985033;28;19924;-88
2022/01/10 08:04:20;;;;;;;;;;;2.90;94.10;;;;;;5006444;28;20485;-88
2022/01/10 08:06:47;;;;;;;;;;;2.90;94.10;;;;;;4980551;28;20160;-88
2022/01/10 08:09:14;;;;;;;;;;;2.90;94.10;;;;;;4987501;28;20101;-88
2022/01/10 08:11:41;;;;;;;;;;;2.90;94.10;;;;;;4998822;28;19920;-88
2022/01/10 08:14:07;;;;;;;;;;;2.90;94.20;;;;;;4981092;28;20046;-89
2022/01/10 08:16:34;;;;;;;;;;;3.00;94.20;;;;;;4992195;28;19917;-88
2022/01/10 08:19:02;;;;;;;;;;;3.00;94.30;;;;;;4994621;28;19933;-88
2022/01/10 08:21:29;;;;;;;;;;;3.00;94.30;;;;;;4976597;28;20337;-88
2022/01/10 08:23:57;;;;;;;;;;;3.00;94.30;;;;;;4988384;28;20389;-88
2022/01/10 08:26:24;;;;;;;;;;;3.00;94.30;;;;;;4985625;28;19921;-88
2022/01/10 08:28:51;;;;;;;;;;;3.10;94.40;;;;;;4988719;28;19920;-88
2022/01/10 08:31:17;;;;;;;;;;;3.20;94.40;;;;;;4981113;28;20746;-88
2022/01/10 08:33:46;;;;;;;;;;;3.10;94.40;;;;;;4985885;28;19921;-88
2022/01/10 08:36:13;;;;;;;;;;;3.20;94.40;;;;;;4994648;28;19921;-88
2022/01/10 08:38:40;;;;;;;;;;;3.20;94.40;;;;;;4985887;28;19921;-88
2022/01/10 08:41:07;;;;;;;;;;;3.30;94.50;;;;;;4980722;28;20609;-88
2022/01/10 08:43:34;;;;;;;;;;;3.30;94.60;;;;;;4997487;28;19918;-88
2022/01/10 08:46:00;;;;;;;;;;;3.30;94.60;;;;;;4982927;28;19917;-88
2022/01/10 08:48:27;;;;;;;;;;;3.40;94.70;;;;;;4987526;28;19914;-88
2022/01/10 08:50:54;;;;;;;;;;;3.40;94.70;;;;;;4991257;28;20366;-88
2022/01/10 08:53:21;;;;;;;;;;;3.50;94.70;;;;;;4977253;28;20309;-88
2022/01/10 08:55:48;;;;;;;;;;;3.50;94.70;;;;;;4975337;28;20366;-88
2022/01/10 08:58:15;;;;;;;;;;;3.60;94.80;;;;;;4986437;28;19914;-88
2022/01/10 09:00:42;;;;;;;;;;;3.60;94.80;;;;;;4981283;28;19913;-88
2022/01/10 09:03:08;;;;;;;;;;;3.60;94.90;;;;;;5015977;28;20113;-88
2022/01/10 09:05:35;;;;;;;;;;;3.70;94.90;;;;;;4989749;28;20314;-88
2022/01/10 09:08:02;;;;;;;;;;;3.70;94.90;;;;;;5006943;28;19914;-88
2022/01/10 09:10:30;;;;;;;;;;;3.70;94.90;;;;;;4981802;28;19920;-88
2022/01/10 09:12:57;;;;;;;;;;;3.80;95.00;;;;;;4997810;28;19913;-88
2022/01/10 09:15:24;;;;;;;;;;;3.90;95.00;;;;;;4985806;28;19923;-88
2022/01/10 09:17:51;;;;;;;;;;;3.90;94.90;;;;;;4985442;28;20381;-88
2022/01/10 09:20:18;;;;;;;;;;;3.90;94.90;;;;;;4992907;28;20386;-88
2022/01/10 09:22:45;;;;;;;;;;;3.90;94.90;;;;;;4996174;28;19913;-88
2022/01/10 09:25:11;;;;;;;;;;;4.00;95.00;;;;;;4976818;28;19956;-88
2022/01/10 09:27:39;;;;;;;;;;;4.00;95.00;;;;;;5001623;28;20277;-88
2022/01/10 09:30:06;;;;;;;;;;;4.00;95.00;;;;;;4986602;28;20074;-88
2022/01/10 09:32:33;;;;;;;;;;;4.00;94.90;;;;;;4988124;28;19944;-88
2022/01/10 09:35:00;;;;;;;;;;;4.00;94.90;;;;;;4993767;28;19928;-88
2022/01/10 09:37:27;;;;;;;;;;;4.00;94.90;;;;;;4999406;28;20378;-88
2022/01/10 09:39:54;;;;;;;;;;;4.00;94.90;;;;;;4998711;28;19919;-88
2022/01/10 09:42:22;;;;;;;;;;;4.00;94.90;;;;;;4981470;28;19914;-88
2022/01/10 09:44:49;;;;;;;;;;;4.00;95.00;;;;;;4988912;28;19913;-88
2022/01/10 09:47:16;;;;;;;;;;;4.10;95.00;;;;;;4974360;28;19921;-88
2022/01/10 09:49:43;;;;;;;;;;;4.10;95.00;;;;;;4997689;28;19920;-88
2022/01/10 09:52:10;;;;;;;;;;;4.20;95.10;;;;;;4988261;28;20467;-88
2022/01/10 09:54:37;;;;;;;;;;;4.20;95.10;;;;;;4991441;28;19941;-88
2022/01/10 09:57:04;;;;;;;;;;;4.30;95.20;;;;;;4979018;28;20099;-88
2022/01/10 09:59:31;;;;;;;;;;;4.30;95.20;;;;;;5000855;28;19932;-88
2022/01/10 10:01:58;;;;;;;;;;;4.30;95.20;;;;;;4980585;28;19914;-88
2022/01/10 10:04:25;;;;;;;;;;;4.40;95.20;;;;;;4997958;28;20393;-88
2022/01/10 10:06:52;;;;;;;;;;;4.50;95.30;;;;;;4990084;28;19921;-88
2022/01/10 10:09:21;;;;;;;;;;;4.50;95.30;;;;;;4991313;28;20008;-88
2022/01/10 10:11:50;;;;;;;;;;;4.50;95.40;;;;;;4979691;28;19914;-88
2022/01/10 10:14:18;;;;;;;;;;;4.50;95.40;;;;;;4989716;28;19944;-88
2022/01/10 10:16:52;;;;;;;;;;;4.60;95.40;;;;;;4988073;28;19924;-87
2022/01/10 10:19:21;;;;;;;;;;;4.60;95.40;;;;;;4972599;28;20197;-88
2022/01/10 10:21:49;;;;;;;;;;;4.60;95.50;;;;;;4967805;28;20214;-88
2022/01/10 10:24:17;;;;;;;;;;;4.70;95.60;;;;;;4984059;28;19922;-87
2022/01/10 10:26:43;;;;;;;;;;;4.80;95.60;;;;;;4988879;28;19920;-87
2022/01/10 10:29:13;;;;;;;;;;;4.80;95.60;;;;;;4979455;28;19913;-87
2022/01/10 10:31:45;;;;;;;;;;;4.80;95.70;;;;;;4992550;28;20429;-87
2022/01/10 10:34:17;;;;;;;;;;;4.80;95.60;;;;;;4978824;28;20202;-87
2022/01/10 10:36:44;;;;;;;;;;;4.90;95.60;;;;;;4994907;28;19925;-87
2022/01/10 10:39:11;;;;;;;;;;;4.90;95.60;;;;;;5005665;28;19917;-87
2022/01/10 10:41:39;;;;;;;;;;;4.90;95.60;;;;;;5001333;28;20396;-87
2022/01/10 10:44:05;;;;;;;;;;;4.90;95.60;;;;;;4986387;28;20220;-87
2022/01/10 10:46:32;;;;;;;;;;;4.90;95.50;;;;;;4989018;28;19914;-87
2022/01/10 10:49:03;;;;;;;;;;;4.90;95.50;;;;;;4981333;28;19917;-87
2022/01/10 10:51:32;;;;;;;;;;;4.90;95.50;;;;;;5012241;28;19924;-87
2022/01/10 10:54:06;;;;;;;;;;;4.90;95.50;;;;;;4990369;28;19920;-87
2022/01/10 10:56:37;;;;;;;;;;;4.90;95.50;;;;;;4998917;28;19926;-87
2022/01/10 10:59:05;;;;;;;;;;;4.90;95.40;;;;;;4983038;28;20105;-87
2022/01/10 11:01:32;;;;;;;;;;;4.90;95.40;;;;;;4996486;28;19923;-87
2022/01/10 11:04:00;;;;;;;;;;;4.90;95.30;;;;;;4986320;28;19933;-87
2022/01/10 11:06:29;;;;;;;;;;;4.90;95.30;;;;;;4997567;28;19924;-87
2022/01/10 11:08:56;;;;;;;;;;;4.90;95.30;;;;;;4973793;28;20049;-87
2022/01/10 11:11:23;;;;;;;;;;;4.90;95.30;;;;;;4990917;28;19918;-87
2022/01/10 11:13:51;;;;;;;;;;;4.80;95.10;;;;;;4983890;28;20260;-86
2022/01/10 11:16:18;;;;;;;;;;;4.80;95.00;;;;;;4994036;28;20398;-87
2022/01/10 11:18:46;;;;;;;;;;;4.80;94.90;;;;;;4968162;28;19914;-87
2022/01/10 11:21:13;;;;;;;;;;;4.70;95.00;;;;;;5005257;28;19909;-87
2022/01/10 11:23:41;;;;;;;;;;;4.70;95.10;;;;;;4983201;28;19920;-87
2022/01/10 11:26:09;;;;;;;;;;;4.70;95.40;;;;;;4996866;28;20007;-87
2022/01/10 11:28:45;;;;;;;;;;;4.70;95.10;;;;;;4978827;28;20391;-87
2022/01/10 11:31:17;;;;;;;;;;;4.70;95.10;;;;;;4986501;28;20388;-87
2022/01/10 11:33:45;;;;;;;;;;;4.70;95.10;;;;;;4981020;28;19918;-87
2022/01/10 11:36:13;;;;;;;;;;;4.70;95.10;;;;;;4988035;28;19921;-87
2022/01/10 11:38:39;;;;;;;;;;;4.70;95.10;;;;;;4971020;28;20378;-86
2022/01/10 11:41:17;;;;;;;;;;;4.70;95.10;;;;;;4997099;28;19917;-86
2022/01/10 11:44:06;;;;;;;;;;;4.70;95.00;;;;;;4993081;28;19913;-87
2022/01/10 11:46:40;;;;;;;;;;;4.70;95.00;;;;;;4981726;28;19917;-87
2022/01/10 11:49:14;;;;;;;;;;;4.70;95.10;;;;;;4990922;28;20276;-86
2022/01/10 11:51:46;;;;;;;;;;;4.70;95.00;;;;;;4984829;28;19922;-87
2022/01/10 11:54:13;;;;;;;;;;;4.80;95.10;;;;;;4991759;28;19920;-87
2022/01/10 11:56:47;;;;;;;;;;;4.80;95.00;;;;;;4994383;28;19932;-87
2022/01/10 11:59:27;;;;;;;;;;;4.80;95.00;;;;;;4986215;28;19920;-87
2022/01/10 12:02:10;;;;;;;;;;;4.80;95.20;;;;;;4992297;28;19921;-87
2022/01/10 12:04:38;;;;;;;;;;;4.80;95.00;;;;;;4986331;28;19913;-87
2022/01/10 12:07:06;;;;;;;;;;;4.80;95.00;;;;;;4983123;28;19914;-87
2022/01/10 12:09:34;;;;;;;;;;;4.80;95.10;;;;;;4990697;28;19913;-87
2022/01/10 12:12:02;;;;;;;;;;;4.80;95.10;;;;;;4983546;28;20366;-87
2022/01/10 12:14:30;;;;;;;;;;;4.80;95.10;;;;;;4981482;28;19914;-87
2022/01/10 12:16:58;;;;;;;;;;;4.90;95.10;;;;;;4976770;28;19918;-86
2022/01/10 12:19:25;;;;;;;;;;;4.90;95.00;;;;;;4973028;28;19918;-86
2022/01/10 12:21:52;;;;;;;;;;;4.90;94.90;;;;;;4977819;28;20111;-87
2022/01/10 12:24:20;;;;;;;;;;;4.90;94.90;;;;;;4981325;28;20389;-86
2022/01/10 12:26:47;;;;;;;;;;;4.90;94.90;;;;;;4995207;28;20144;-87
2022/01/10 12:29:15;;;;;;;;;;;4.90;94.90;;;;;;4991269;28;19914;-87
2022/01/10 12:31:43;;;;;;;;;;;4.90;94.90;;;;;;4972127;28;20157;-87
2022/01/10 12:34:11;;;;;;;;;;;4.90;94.80;;;;;;4998295;28;20273;-86
2022/01/10 12:36:38;;;;;;;;;;;4.90;94.70;;;;;;4982284;28;19996;-86
2022/01/10 12:39:09;;;;;;;;;;;4.90;94.70;;;;;;4985514;28;19914;-86
2022/01/10 12:41:36;;;;;;;;;;;4.80;94.60;;;;;;4987077;28;20539;-86
2022/01/10 12:44:03;;;;;;;;;;;4.80;94.50;;;;;;4984400;28;19914;-87
2022/01/10 12:46:33;;;;;;;;;;;4.80;94.60;;;;;;4972066;28;20392;-87
2022/01/10 12:49:05;;;;;;;;;;;4.80;94.70;;;;;;4978432;28;20386;-87
2022/01/10 12:51:37;;;;;;;;;;;4.80;94.70;;;;;;4969173;28;19914;-87
2022/01/10 12:54:14;;;;;;;;;;;4.80;94.80;;;;;;4985883;28;19917;-86
2022/01/10 12:56:41;;;;;;;;;;;4.80;94.90;;;;;;4987415;28;20092;-86
2022/01/10 12:59:16;;;;;;;;;;;4.90;94.80;;;;;;4978832;28;19920;-86
2022/01/10 13:01:43;;;;;;;;;;;4.90;94.60;;;;;;4982143;28;20200;-86
2022/01/10 13:04:10;;;;;;;;;;;4.80;94.50;;;;;;4992643;28;20125;-86
2022/01/10 13:06:39;;;;;;;;;;;4.80;94.40;;;;;;4979366;28;20232;-86
2022/01/10 13:09:08;;;;;;;;;;;4.80;94.40;;;;;;4974517;28;19913;-87
2022/01/10 13:11:49;;;;;;;;;;;4.80;94.40;;;;;;4986469;28;19913;-86
2022/01/10 13:14:20;;;;;;;;;;;4.80;94.50;;;;;;5000289;28;19921;-87
2022/01/10 13:16:58;;;;;;;;;;;4.80;94.70;;;;;;4992134;28;20107;-86
2022/01/10 13:19:27;;;;;;;;;;;4.80;94.90;;;;;;4975456;28;20182;-87
2022/01/10 13:21:56;;;;;;;;;;;4.80;94.90;;;;;;4980190;28;19914;-87
2022/01/10 13:24:24;;;;;;;;;;;4.80;94.90;;;;;;4976780;28;19928;-86
2022/01/10 13:26:58;;;;;;;;;;;4.80;94.90;;;;;;5000995;28;19920;-87
2022/01/10 13:29:32;;;;;;;;;;;4.80;94.90;;;;;;4982797;28;19924;-87
2022/01/10 13:32:14;;;;;;;;;;;4.90;95.00;;;;;;4976830;28;20402;-87
2022/01/10 13:34:41;;;;;;;;;;;4.90;95.10;;;;;;4986990;28;19913;-87
2022/01/10 13:37:09;;;;;;;;;;;4.90;95.10;;;;;;4990419;28;19918;-87
2022/01/10 13:39:36;;;;;;;;;;;4.90;95.10;;;;;;4977824;28;19913;-86
2022/01/10 13:42:05;;;;;;;;;;;5.00;95.20;;;;;;4990886;28;20558;-86
2022/01/10 13:44:46;;;;;;;;;;;4.90;95.00;;;;;;4985391;28;19921;-86
2022/01/10 13:47:15;;;;;;;;;;;4.90;95.00;;;;;;5000459;28;19913;-86
2022/01/10 13:49:42;;;;;;;;;;;4.90;95.00;;;;;;4979843;28;19922;-86
2022/01/10 13:52:10;;;;;;;;;;;4.90;95.00;;;;;;4996836;28;19913;-86
2022/01/10 13:54:37;;;;;;;;;;;4.90;95.10;;;;;;4981490;28;19919;-86
2022/01/10 13:57:18;;;;;;;;;;;5.00;95.10;;;;;;4987057;28;19922;-86
2022/01/10 13:59:45;;;;;;;;;;;4.90;95.10;;;;;;4998884;28;20305;-86
2022/01/10 14:02:15;;;;;;;;;;;4.90;95.10;;;;;;4981566;28;20042;-86
2022/01/10 14:04:44;;;;;;;;;;;4.90;95.10;;;;;;4987878;28;19910;-86
2022/01/10 14:07:13;;;;;;;;;;;4.90;95.10;;;;;;4994771;28;19918;-87
2022/01/10 14:09:41;;;;;;;;;;;4.90;95.10;;;;;;4975740;28;19924;-86
2022/01/10 14:12:10;;;;;;;;;;;4.90;95.00;;;;;;4984667;28;20287;-86
2022/01/10 14:14:37;;;;;;;;;;;4.80;95.00;;;;;;5014645;28;19920;-86
2022/01/10 14:17:03;;;;;;;;;;;4.80;95.10;;;;;;4989184;28;20430;-86
2022/01/10 14:19:30;;;;;;;;;;;4.80;95.10;;;;;;4980078;28;20277;-86
2022/01/10 14:21:59;;;;;;;;;;;4.90;95.10;;;;;;4965759;28;19920;-86
2022/01/10 14:24:26;;;;;;;;;;;4.90;95.10;;;;;;4993014;28;19928;-86
2022/01/10 14:26:53;;;;;;;;;;;4.90;95.10;;;;;;4979097;28;19921;-86
2022/01/10 14:29:20;;;;;;;;;;;4.90;95.20;;;;;;5008219;28;19914;-86
2022/01/10 14:31:47;;;;;;;;;;;4.90;95.20;;;;;;4995670;28;19920;-86
2022/01/10 14:34:15;;;;;;;;;;;4.90;95.20;;;;;;4981536;28;20019;-86
2022/01/10 14:36:42;;;;;;;;;;;4.90;95.10;;;;;;4996614;28;19932;-86
2022/01/10 14:39:09;;;;;;;;;;;4.90;95.00;;;;;;4988578;28;19921;-86
2022/01/10 14:41:36;;;;;;;;;;;4.80;95.00;;;;;;4983504;28;19935;-86
2022/01/10 14:44:03;;;;;;;;;;;4.80;95.00;;;;;;4996585;28;19927;-86